Virtual LH

Virtual LH. There's no better way to fly
Since 2013.



AIRPORT MAP

METAR AND TAF INFORMATION

METAR FOR LIPX
ADDS - METARS form results

(1108 UTC 20 June 2019)
Data provider http://aviationweather.gov/metar/data/
 
METAR text: LIPX 201050Z 19006KT 140V250 CAVOK 30/14 Q1012
Conditions at: LIPX (VILLAFRANCA(CV/M, IT) observed 1050 UTC 20 June 2019
Temperature: 30.0°C (86°F)
Dewpoint: 14.0°C (57°F) [RH = 38%]
Pressure (altimeter): 29.88 inches Hg (1012.0 mb)
Winds: from the S (190 degrees) at 7 MPH (6 knots; 3.1 m/s)
Visibility: 6 or more miles (10+ km)
Ceiling: ceiling and visibility are OK
Clouds: unknown
Weather: no significant weather observed at this time

METAR text: LIPX 201020Z 19005KT 150V240 CAVOK 29/13 Q1012
Conditions at: LIPX (VILLAFRANCA(CV/M, IT) observed 1020 UTC 20 June 2019
Temperature: 29.0°C (84°F)
Dewpoint: 13.0°C (55°F) [RH = 37%]
Pressure (altimeter): 29.88 inches Hg (1012.0 mb)
Winds: from the S (190 degrees) at 6 MPH (5 knots; 2.6 m/s)
Visibility: 6 or more miles (10+ km)
Ceiling: ceiling and visibility are OK
Clouds: unknown
Weather: no significant weather observed at this time

Forecast for: LIPX (VILLAFRANCA(CV/M, IT)
Text: TAF LIPX 200800Z 2009/2018 VRB05KT CAVOK
Forecast period: 0900 to 1800 UTC 20 June 2019
Forecast type: FROM: standard forecast or significant change
Winds: variable direction winds at 6 MPH (5 knots; 2.6 m/s)
Visibility: 6 or more miles 10+ km)
Ceiling: unknown
Clouds: missing
Weather: NSW  (no significant weather)

RUNWAY INFORMATION

Runway 04 Runway length 10064 ft Runway width 148 ft
Runway elevation 220 ft Runway displaced threshold 189 ft Runway heading 46
Runway 22 Runway length 10064 ft Runway width 148 ft
Runway elevation 238 ft Runway displaced threshold 1345 ft Runway heading 226

AIRPORT FREQUENCIES

Type APP Name GARDA APP Frequency 36.23 MHZ
Type APP Name GARDA APP Frequency 124.45 MHZ
Type GND Name GND Frequency 121.75 MHZ
Type INFO Name PADOVA INF Frequency 123.25 MHZ
Type TWR Name TWR Frequency 118.65 MHZ

AIRPORT NEAR NAVIGATION AIDS

Type VORTAC Name Villafranca Frequency 115800 KHZ
Type NDB Name Villafranca Frequency 355 KHZ